Nordborg, Denmark
Current Conditions -  °F | °C
As of 5:20 PM on Sunday 21 Dec 2014 (Local Time) from ETGG Reporting Station
Broken Clouds Broken Clouds  
Wind Chill: 36°   Ceiling: 2000
Heat Index: 45°   Visibility: 6mi
Dew Point: 41°   Wind: 22mph
Humidity: 87%   Direction: 240°WSW
Pressure: 29.88"   Gusts: 33mph
Location:  55.06°N, 9.74°E
Report Text: ETGG 211620Z 24019G29KT 9000 FEW009 BKN020 07/05 Q1012 WHT
Loading
Personal Weather Stations






























Interactive Weather Map New forecast layout! Learn more

10-Day Weather Forecast

Advertisements
Track Severe Weather on mobile